Time;durP1;ratioP1;P1;durP2;ratioP2;P2;SDS_P1;SDS_P2;PMS_P1;PMS_P2;Temp;Humidity;BMP_temperature;BMP_pressure;BME280_temperature;BME280_humidity;BME280_pressure;Samples;Min_cycle;Max_cycle;Signal;HPM_P1;HPM_P2
2023/07/06 00:01:26;;;;;;;3.10;2.28;;;;;15.30;98705.00;;;;5013857;28;20046;-65
2023/07/06 00:03:56;;;;;;;2.92;2.20;;;;;15.30;98699.00;;;;5013910;28;20053;-65
2023/07/06 00:06:23;;;;;;;3.67;2.20;;;;;15.30;98701.00;;;;5014111;28;20125;-65
2023/07/06 00:08:52;;;;;;;5.85;2.38;;;;;15.30;98704.00;;;;5014165;28;20085;-65
2023/07/06 00:11:23;;;;;;;5.55;2.50;;;;;15.50;98708.00;;;;4996356;28;20140;-65
2023/07/06 00:13:49;;;;;;;4.32;2.30;;;;;15.50;98702.00;;;;5013535;28;20041;-65
2023/07/06 00:16:16;;;;;;;4.57;2.43;;;;;15.40;98706.00;;;;4978904;28;1046668;-65
2023/07/06 00:18:43;;;;;;;5.72;2.60;;;;;15.50;98701.00;;;;5015232;28;20316;-66
2023/07/06 00:21:09;;;;;;;4.60;2.40;;;;;15.60;98705.00;;;;5014910;28;20046;-66
2023/07/06 00:23:36;;;;;;;5.30;2.30;;;;;15.50;98714.00;;;;5020487;28;20038;-66
2023/07/06 00:26:02;;;;;;;4.65;2.55;;;;;15.40;98711.00;;;;5025467;28;20101;-66
2023/07/06 00:28:29;;;;;;;4.38;2.42;;;;;15.40;98708.00;;;;5028024;28;20045;-66
2023/07/06 00:31:01;;;;;;;3.65;2.50;;;;;15.30;98714.00;;;;5010368;28;20054;-66
2023/07/06 00:33:29;;;;;;;5.38;2.85;;;;;15.30;98712.00;;;;5028945;28;20046;-66
2023/07/06 00:35:56;;;;;;;2.58;2.00;;;;;15.20;98709.00;;;;5050638;28;20088;-66
2023/07/06 00:38:24;;;;;;;2.95;2.38;;;;;15.20;98706.00;;;;5035226;28;20040;-67
2023/07/06 00:40:55;;;;;;;4.50;2.30;;;;;15.10;98708.00;;;;5051795;28;20046;-66
2023/07/06 00:43:25;;;;;;;4.90;2.72;;;;;15.00;98704.00;;;;5036263;28;20066;-66
2023/07/06 00:45:55;;;;;;;3.25;2.28;;;;;14.90;98710.00;;;;5052924;28;20185;-66
2023/07/06 00:48:32;;;;;;;3.83;2.10;;;;;14.80;98705.00;;;;5038138;28;20050;-65
2023/07/06 00:51:04;;;;;;;5.03;2.67;;;;;14.60;98716.00;;;;5032904;28;20049;-66
2023/07/06 00:53:35;;;;;;;4.07;2.35;;;;;14.60;98707.00;;;;5049066;28;20048;-66
2023/07/06 00:56:04;;;;;;;5.50;2.60;;;;;14.60;98707.00;;;;5049744;28;20050;-67
2023/07/06 00:58:36;;;;;;;4.80;2.55;;;;;14.50;98708.00;;;;5050014;28;20061;-66
2023/07/06 01:01:07;;;;;;;3.25;2.88;;;;;14.50;98701.00;;;;5018167;28;20081;-66
2023/07/06 01:03:43;;;;;;;3.95;2.65;;;;;14.40;98703.00;;;;5035960;28;20029;-66
2023/07/06 01:06:16;;;;;;;3.30;2.47;;;;;14.40;98707.00;;;;5052638;28;20076;-66
2023/07/06 01:08:42;;;;;;;4.10;2.80;;;;;14.40;98705.00;;;;5053621;28;20050;-66
2023/07/06 01:11:09;;;;;;;3.63;2.60;;;;;14.50;98708.00;;;;5037132;28;20041;-67
2023/07/06 01:13:36;;;;;;;3.38;2.10;;;;;14.60;98708.00;;;;5053561;28;20049;-66
2023/07/06 01:16:09;;;;;;;3.85;2.92;;;;;14.70;98705.00;;;;5035875;28;20114;-65
2023/07/06 01:18:57;;;;;;;2.92;2.40;;;;;14.80;98697.00;;;;5036992;28;20062;-66
2023/07/06 01:22:00;;;;;;;3.53;2.20;;;;;14.60;98703.00;;;;5039207;28;20024;-66
2023/07/06 01:25:06;;;;;;;4.00;2.83;;;;;14.50;98710.00;;;;5007233;28;20034;-66
2023/07/06 01:27:55;;;;;;;5.72;2.38;;;;;14.50;98703.00;;;;5038630;28;20034;-65
2023/07/06 01:30:54;;;;;;;5.95;2.70;;;;;14.40;98707.00;;;;5020568;28;20111;-65
2023/07/06 01:33:32;;;;;;;4.60;2.25;;;;;14.40;98702.00;;;;5037266;28;20037;-65
2023/07/06 01:36:10;;;;;;;3.33;2.42;;;;;14.30;98702.00;;;;5046931;28;20064;-65
2023/07/06 01:38:37;;;;;;;3.92;2.50;;;;;14.40;98698.00;;;;5034649;28;20053;-66
2023/07/06 01:41:06;;;;;;;4.32;2.60;;;;;14.40;98698.00;;;;5033462;28;20053;-66
2023/07/06 01:43:33;;;;;;;3.70;2.58;;;;;14.50;98705.00;;;;5050277;28;20050;-65
2023/07/06 01:45:59;;;;;;;4.72;2.40;;;;;14.60;98705.00;;;;5032272;28;20114;-66
2023/07/06 01:48:26;;;;;;;2.92;2.63;;;;;14.50;98703.00;;;;5006306;28;20060;-66
2023/07/06 01:51:29;;;;;;;3.25;2.63;;;;;14.40;98703.00;;;;5021799;28;20120;-66
2023/07/06 01:53:59;;;;;;;3.58;2.50;;;;;14.30;98702.00;;;;5010105;28;20048;-66
2023/07/06 01:56:45;;;;;;;4.00;2.63;;;;;14.30;98696.00;;;;5020090;28;20105;-65
2023/07/06 01:59:17;;;;;;;3.90;2.55;;;;;14.20;98700.00;;;;5015116;28;20100;-65
2023/07/06 02:01:49;;;;;;;3.78;2.70;;;;;14.20;98700.00;;;;5014099;28;20053;-65
2023/07/06 02:04:20;;;;;;;3.83;2.72;;;;;14.20;98696.00;;;;4996823;28;20116;-66
2023/07/06 02:06:53;;;;;;;2.63;2.10;;;;;14.20;98692.00;;;;5013189;28;20049;-66
2023/07/06 02:09:20;;;;;;;5.10;2.95;;;;;14.30;98704.00;;;;4996305;28;20052;-65
2023/07/06 02:11:47;;;;;;;4.03;2.60;;;;;14.30;98696.00;;;;5013405;28;20414;-65
2023/07/06 02:14:13;;;;;;;3.28;2.78;;;;;14.30;98699.00;;;;4996223;28;20046;-65
2023/07/06 02:16:40;;;;;;;4.15;2.65;;;;;14.20;98698.00;;;;5011957;28;20107;-65
2023/07/06 02:19:08;;;;;;;4.10;2.28;;;;;14.20;98701.00;;;;5011232;28;20068;-65
2023/07/06 02:21:34;;;;;;;3.78;2.35;;;;;14.20;98696.00;;;;5012814;28;20050;-66
2023/07/06 02:24:01;;;;;;;4.93;2.25;;;;;14.20;98699.00;;;;5027918;28;20050;-66
2023/07/06 02:26:27;;;;;;;3.53;2.40;;;;;14.10;98695.00;;;;5013384;28;20064;-65
2023/07/06 02:28:54;;;;;;;5.25;2.85;;;;;14.10;98696.00;;;;5014764;28;20121;-66
2023/07/06 02:31:20;;;;;;;4.00;2.50;;;;;14.10;98697.00;;;;5029830;28;20046;-66
2023/07/06 02:33:47;;;;;;;4.47;3.15;;;;;14.10;98684.00;;;;5015452;28;20391;-66
2023/07/06 02:36:14;;;;;;;3.28;2.90;;;;;14.00;98700.00;;;;5014583;28;20045;-66
2023/07/06 02:38:42;;;;;;;5.28;2.88;;;;;14.00;98699.00;;;;5011959;28;20046;-66
2023/07/06 02:41:08;;;;;;;3.90;2.25;;;;;14.00;98700.00;;;;5027761;28;20136;-66
2023/07/06 02:43:35;;;;;;;4.90;2.85;;;;;14.00;98693.00;;;;4994947;28;20478;-66
2023/07/06 02:46:03;;;;;;;3.45;2.72;;;;;14.00;98694.00;;;;5011069;28;20052;-66
2023/07/06 02:48:30;;;;;;;4.35;2.85;;;;;13.90;98689.00;;;;5012517;28;20070;-66
2023/07/06 02:50:57;;;;;;;4.30;2.90;;;;;13.90;98693.00;;;;5010936;28;20088;-66
2023/07/06 02:53:24;;;;;;;3.45;2.65;;;;;13.90;98693.00;;;;5011185;28;20065;-66
2023/07/06 02:55:54;;;;;;;2.58;2.33;;;;;13.80;98691.00;;;;5027156;28;20530;-66
2023/07/06 02:58:21;;;;;;;4.28;2.90;;;;;13.70;98692.00;;;;4995130;28;20116;-66
2023/07/06 03:00:50;;;;;;;4.70;2.90;;;;;13.70;98695.00;;;;5027438;28;20125;-66
2023/07/06 03:03:16;;;;;;;5.82;2.70;;;;;13.80;98694.00;;;;5011205;28;20100;-66
2023/07/06 03:05:44;;;;;;;6.80;5.20;;;;;13.90;98694.00;;;;5027519;28;20053;-66
2023/07/06 03:08:11;;;;;;;9.82;5.82;;;;;13.90;98700.00;;;;5012048;28;20552;-66
2023/07/06 03:10:38;;;;;;;6.10;4.28;;;;;13.90;98689.00;;;;5010467;28;20096;-66
2023/07/06 03:13:06;;;;;;;4.30;3.58;;;;;14.10;98696.00;;;;5010939;28;20525;-66
2023/07/06 03:15:32;;;;;;;6.50;4.53;;;;;13.90;98691.00;;;;5012198;28;20053;-66
2023/07/06 03:17:59;;;;;;;5.05;3.30;;;;;13.80;98684.00;;;;5012124;28;20116;-66
2023/07/06 03:20:25;;;;;;;4.32;3.15;;;;;13.70;98685.00;;;;5027410;28;20100;-66
2023/07/06 03:22:53;;;;;;;6.85;3.83;;;;;13.60;98691.00;;;;5012366;28;20081;-66
2023/07/06 03:25:23;;;;;;;5.00;2.92;;;;;13.60;98688.00;;;;5010930;28;20050;-66
2023/07/06 03:27:51;;;;;;;3.70;3.00;;;;;13.70;98691.00;;;;5012211;28;20498;-66
2023/07/06 03:30:23;;;;;;;4.63;3.10;;;;;13.60;98693.00;;;;5010781;28;20053;-66
2023/07/06 03:32:51;;;;;;;4.30;2.88;;;;;13.50;98689.00;;;;5027687;28;20038;-66
2023/07/06 03:35:21;;;;;;;5.03;2.70;;;;;13.50;98685.00;;;;5012771;28;20085;-66
2023/07/06 03:37:48;;;;;;;3.42;2.65;;;;;13.60;98699.00;;;;5011891;28;20046;-66
2023/07/06 03:40:15;;;;;;;3.88;2.47;;;;;13.60;98695.00;;;;5027788;28;20125;-66
2023/07/06 03:42:46;;;;;;;3.35;2.75;;;;;13.50;98699.00;;;;5027961;28;20046;-66
2023/07/06 03:45:15;;;;;;;5.00;3.30;;;;;13.40;98703.00;;;;5011637;28;20220;-66
2023/07/06 03:47:43;;;;;;;5.75;3.08;;;;;13.40;98696.00;;;;5015795;28;20046;-67
2023/07/06 03:50:12;;;;;;;5.97;3.00;;;;;13.40;98703.00;;;;5031481;28;20053;-66
2023/07/06 03:52:39;;;;;;;3.67;2.83;;;;;13.40;98709.00;;;;5031732;28;20046;-66
2023/07/06 03:55:26;;;;;;;5.55;2.83;;;;;13.50;98714.00;;;;5016474;28;20049;-66
2023/07/06 03:57:53;;;;;;;3.72;3.08;;;;;13.50;98709.00;;;;5031469;28;20053;-66
2023/07/06 04:00:31;;;;;;;4.72;3.30;;;;;13.50;98714.00;;;;5029755;28;20482;-66
2023/07/06 04:03:03;;;;;;;3.90;2.80;;;;;13.60;98715.00;;;;5014541;28;20092;-66
2023/07/06 04:05:38;;;;;;;4.00;2.97;;;;;13.60;98717.00;;;;5015586;28;20046;-66
2023/07/06 04:08:08;;;;;;;3.63;3.10;;;;;13.60;98715.00;;;;5016039;28;20477;-66
2023/07/06 04:10:37;;;;;;;5.60;3.00;;;;;13.50;98708.00;;;;5015674;28;20049;-65
2023/07/06 04:13:04;;;;;;;6.30;3.40;;;;;13.50;98720.00;;;;5016220;28;20076;-66
2023/07/06 04:15:32;;;;;;;5.00;3.22;;;;;13.50;98721.00;;;;5015715;28;20046;-66
2023/07/06 04:17:59;;;;;;;9.82;6.70;;;;;13.70;98718.00;;;;5031211;28;20050;-66
2023/07/06 04:20:28;;;;;;;6.63;3.67;;;;;13.70;98731.00;;;;5015647;28;20041;-66
2023/07/06 04:22:57;;;;;;;9.20;4.70;;;;;13.70;98721.00;;;;5015999;28;20056;-66
2023/07/06 04:25:31;;;;;;;7.22;3.97;;;;;13.70;98729.00;;;;5016024;28;20455;-66
2023/07/06 04:28:02;;;;;;;6.13;4.53;;;;;13.70;98728.00;;;;5016417;28;20462;-67
2023/07/06 04:30:33;;;;;;;5.72;2.95;;;;;13.70;98726.00;;;;5015520;28;20204;-67
2023/07/06 04:33:00;;;;;;;6.20;3.78;;;;;13.70;98732.00;;;;5015512;28;20056;-67
2023/07/06 04:35:27;;;;;;;6.25;4.53;;;;;13.80;98729.00;;;;5016317;28;20449;-67
2023/07/06 04:37:54;;;;;;;6.70;4.50;;;;;14.00;98733.00;;;;5019596;28;20587;-67
2023/07/06 04:40:21;;;;;;;6.82;3.85;;;;;14.20;98733.00;;;;5016889;28;20080;-67
2023/07/06 04:42:52;;;;;;;5.70;3.45;;;;;14.30;98737.00;;;;5016431;28;20038;-66
2023/07/06 04:45:21;;;;;;;4.25;3.10;;;;;14.50;98737.00;;;;5015041;28;20041;-66
2023/07/06 04:47:51;;;;;;;5.78;3.13;;;;;14.70;98739.00;;;;5014689;28;20058;-67
2023/07/06 04:50:22;;;;;;;4.20;3.08;;;;;14.80;98746.00;;;;5012975;28;20046;-66
2023/07/06 04:52:53;;;;;;;5.82;2.95;;;;;14.90;98747.00;;;;5018882;28;20052;-67
2023/07/06 04:55:24;;;;;;;18.65;12.48;;;;;14.90;98739.00;;;;5015233;28;20050;-65
2023/07/06 04:57:52;;;;;;;6.50;4.35;;;;;15.10;98740.00;;;;5015027;28;20409;-66
2023/07/06 05:00:26;;;;;;;5.85;3.65;;;;;15.20;98748.00;;;;5012404;28;20503;-66
2023/07/06 05:02:58;;;;;;;6.70;4.22;;;;;15.30;98745.00;;;;5030924;28;20487;-67
2023/07/06 05:05:28;;;;;;;9.38;4.88;;;;;15.30;98747.00;;;;5015179;28;20081;-66
2023/07/06 05:07:57;;;;;;;4.95;3.38;;;;;15.40;98744.00;;;;5015178;28;20426;-66
2023/07/06 05:10:25;;;;;;;8.70;5.22;;;;;15.50;98744.00;;;;5015018;28;20045;-66
2023/07/06 05:12:53;;;;;;;5.85;3.70;;;;;15.60;98742.00;;;;5014890;28;20107;-66
2023/07/06 05:15:19;;;;;;;5.93;3.75;;;;;15.70;98761.00;;;;5014543;28;20050;-66
2023/07/06 05:17:46;;;;;;;6.50;3.92;;;;;15.80;98752.00;;;;5029696;28;20054;-66
2023/07/06 05:20:14;;;;;;;5.72;3.63;;;;;15.90;98757.00;;;;5013368;28;20483;-66
2023/07/06 05:22:42;;;;;;;6.22;3.85;;;;;15.90;98750.00;;;;5013966;28;20050;-66
2023/07/06 05:25:11;;;;;;;4.47;3.28;;;;;15.80;98758.00;;;;4996089;28;20038;-66
2023/07/06 05:27:38;;;;;;;6.13;3.72;;;;;15.80;98763.00;;;;5013973;28;20422;-66
2023/07/06 05:30:06;;;;;;;5.68;3.70;;;;;15.90;98761.00;;;;5013687;28;20059;-66
2023/07/06 05:32:33;;;;;;;6.45;3.75;;;;;16.10;98750.00;;;;5014310;28;20050;-66
2023/07/06 05:34:59;;;;;;;4.97;3.22;;;;;16.10;98757.00;;;;5013064;28;20065;-66
2023/07/06 05:37:26;;;;;;;5.88;4.03;;;;;16.20;98752.00;;;;5012774;28;20056;-66
2023/07/06 05:40:04;;;;;;;5.70;3.45;;;;;16.10;98762.00;;;;5013337;28;20534;-66
2023/07/06 05:42:31;;;;;;;4.15;3.42;;;;;16.20;98761.00;;;;5012655;28;20048;-65
2023/07/06 05:44:58;;;;;;;5.03;3.10;;;;;16.10;98765.00;;;;5013948;28;20052;-66
2023/07/06 05:47:24;;;;;;;5.15;3.45;;;;;16.10;98754.00;;;;5029018;28;20065;-65
2023/07/06 05:49:51;;;;;;;5.50;3.95;;;;;16.10;98759.00;;;;5013489;28;20053;-65
2023/07/06 05:52:18;;;;;;;5.38;3.78;;;;;16.20;98763.00;;;;5013790;28;20050;-65
2023/07/06 05:54:44;;;;;;;6.57;3.78;;;;;16.20;98764.00;;;;5011668;28;20057;-65
2023/07/06 05:57:16;;;;;;;6.20;3.80;;;;;16.30;98765.00;;;;5014414;28;20049;-65
2023/07/06 05:59:43;;;;;;;7.97;3.92;;;;;16.50;98768.00;;;;5015286;28;20060;-65
2023/07/06 06:02:13;;;;;;;9.63;4.38;;;;;16.50;98769.00;;;;5013115;28;20450;-65
2023/07/06 06:04:40;;;;;;;8.60;5.60;;;;;16.60;98770.00;;;;5014050;28;20046;-65
2023/07/06 06:07:06;;;;;;;8.15;5.28;;;;;16.70;98784.00;;;;5013036;28;20054;-65
2023/07/06 06:09:33;;;;;;;16.08;8.07;;;;;16.90;98774.00;;;;5012865;28;20502;-65
2023/07/06 06:12:00;;;;;;;9.38;6.15;;;;;17.10;98780.00;;;;5012314;28;20048;-65
2023/07/06 06:14:27;;;;;;;6.70;5.50;;;;;17.20;98778.00;;;;5012535;28;20120;-65
2023/07/06 06:16:54;;;;;;;6.00;4.22;;;;;17.30;98777.00;;;;5012885;28;20056;-65
2023/07/06 06:19:21;;;;;;;8.68;4.47;;;;;17.50;98781.00;;;;5027725;28;20049;-65
2023/07/06 06:21:49;;;;;;;6.68;4.32;;;;;17.50;98780.00;;;;5013070;28;20046;-65
2023/07/06 06:24:17;;;;;;;6.90;4.28;;;;;17.60;98781.00;;;;5027616;28;20060;-65
2023/07/06 06:26:44;;;;;;;5.25;3.83;;;;;17.80;98781.00;;;;4996760;28;20144;-66
2023/07/06 06:29:11;;;;;;;6.50;3.58;;;;;17.90;98784.00;;;;5027435;28;20487;-66
2023/07/06 06:31:42;;;;;;;5.43;4.00;;;;;18.00;98784.00;;;;5012597;28;20081;-66
2023/07/06 06:34:10;;;;;;;9.52;4.25;;;;;18.00;98791.00;;;;5028452;28;20049;-65
2023/07/06 06:36:37;;;;;;;5.93;4.07;;;;;18.10;98796.00;;;;5028751;28;20081;-65
2023/07/06 06:39:04;;;;;;;5.53;4.20;;;;;18.10;98792.00;;;;5012636;28;20081;-65
2023/07/06 06:41:31;;;;;;;6.47;4.50;;;;;18.10;98786.00;;;;5027870;28;20139;-65
2023/07/06 06:43:57;;;;;;;5.80;3.55;;;;;18.10;98798.00;;;;5011104;28;20046;-66
2023/07/06 06:46:24;;;;;;;9.13;4.20;;;;;18.10;98786.00;;;;5012737;28;20128;-65
2023/07/06 06:48:50;;;;;;;6.60;3.78;;;;;18.10;98793.00;;;;5011288;28;20056;-65
2023/07/06 06:51:17;;;;;;;6.13;3.78;;;;;18.30;98800.00;;;;5012370;28;20057;-66
2023/07/06 06:53:44;;;;;;;11.80;3.85;;;;;18.50;98799.00;;;;5012372;28;20038;-66
2023/07/06 06:56:11;;;;;;;6.13;4.07;;;;;18.60;98801.00;;;;4995123;28;20525;-65
2023/07/06 06:58:37;;;;;;;9.00;4.55;;;;;18.60;98802.00;;;;5013011;28;20048;-66
2023/07/06 07:01:09;;;;;;;8.55;3.58;;;;;18.70;98803.00;;;;5028317;28;20148;-65
2023/07/06 07:03:35;;;;;;;4.40;3.15;;;;;18.80;98809.00;;;;5013686;28;20054;-65
2023/07/06 07:06:12;;;;;;;4.45;2.97;;;;;18.90;98800.00;;;;5012771;28;20099;-65
2023/07/06 07:08:44;;;;;;;6.90;3.22;;;;;19.00;98792.00;;;;5027353;28;20061;-65
2023/07/06 07:11:12;;;;;;;6.05;3.05;;;;;19.10;98803.00;;;;5011906;28;20052;-66
2023/07/06 07:13:50;;;;;;;6.07;2.90;;;;;19.20;98793.00;;;;5026188;28;20438;-65
2023/07/06 07:16:17;;;;;;;4.85;2.60;;;;;19.20;98798.00;;;;5012103;28;20049;-65
2023/07/06 07:18:45;;;;;;;6.18;3.08;;;;;19.30;98797.00;;;;5027361;28;20041;-64
2023/07/06 07:21:13;;;;;;;6.50;2.92;;;;;19.30;98800.00;;;;5026713;28;20057;-66
2023/07/06 07:23:42;;;;;;;3.10;2.50;;;;;19.40;98804.00;;;;5012063;28;20050;-65
2023/07/06 07:26:12;;;;;;;4.38;2.47;;;;;19.50;98798.00;;;;5031036;28;20045;-65
2023/07/06 07:28:40;;;;;;;5.53;2.92;;;;;19.50;98800.00;;;;5017073;28;20049;-66
2023/07/06 07:31:11;;;;;;;3.42;2.30;;;;;19.60;98796.00;;;;5015639;28;20529;-64
2023/07/06 07:33:44;;;;;;;5.15;2.28;;;;;19.80;98804.00;;;;5030923;28;20487;-64
2023/07/06 07:36:12;;;;;;;10.20;2.70;;;;;19.90;98796.00;;;;5014659;28;20096;-65
2023/07/06 07:38:39;;;;;;;6.57;3.03;;;;;20.00;98798.00;;;;5015448;28;20100;-63
2023/07/06 07:41:07;;;;;;;7.55;3.03;;;;;20.10;98800.00;;;;5014900;28;20096;-64
2023/07/06 07:43:36;;;;;;;5.40;2.53;;;;;20.20;98804.00;;;;5014013;28;20573;-63
2023/07/06 07:46:05;;;;;;;11.13;4.07;;;;;20.30;98801.00;;;;5014009;28;20052;-64
2023/07/06 07:48:38;;;;;;;4.55;2.60;;;;;20.40;98802.00;;;;5015811;28;20453;-64
2023/07/06 07:51:11;;;;;;;5.85;2.72;;;;;20.40;98808.00;;;;5030158;28;20053;-65
2023/07/06 07:53:39;;;;;;;5.85;2.50;;;;;20.40;98801.00;;;;4998327;28;20066;-64
2023/07/06 07:56:07;;;;;;;7.85;4.20;;;;;20.60;98796.00;;;;5015763;28;20506;-65
2023/07/06 07:58:36;;;;;;;5.22;2.05;;;;;20.70;98807.00;;;;5015944;28;20042;-64
2023/07/06 08:01:05;;;;;;;7.32;2.25;;;;;20.70;98798.00;;;;5013968;28;20060;-67
2023/07/06 08:03:33;;;;;;;4.47;2.67;;;;;20.80;98798.00;;;;5014371;28;20109;-64
2023/07/06 08:06:05;;;;;;;4.78;2.45;;;;;21.00;98800.00;;;;5015418;28;20041;-64
2023/07/06 08:08:33;;;;;;;4.45;2.05;;;;;21.10;98804.00;;;;5019258;28;20070;-65
2023/07/06 08:11:03;;;;;;;3.08;2.03;;;;;21.20;98803.00;;;;5015496;28;20100;-66
2023/07/06 08:13:30;;;;;;;4.38;2.03;;;;;21.30;98800.00;;;;5031099;28;20384;-64
2023/07/06 08:15:56;;;;;;;2.38;1.58;;;;;21.30;98798.00;;;;5014040;28;20053;-64
2023/07/06 08:18:24;;;;;;;4.25;2.25;;;;;21.40;98801.00;;;;5014420;28;20049;-65
2023/07/06 08:20:53;;;;;;;3.55;2.80;;;;;21.50;98805.00;;;;5013940;28;20049;-66
2023/07/06 08:23:47;;;;;;;2.50;1.30;;;;;21.70;98796.00;;;;5015382;28;20560;-65
2023/07/06 08:26:14;;;;;;;3.22;1.27;;;;;21.80;98803.00;;;;5013892;28;20050;-65
2023/07/06 08:28:40;;;;;;;8.30;2.08;;;;;21.90;98805.00;;;;5031379;28;20050;-65
2023/07/06 08:31:12;;;;;;;3.78;1.98;;;;;22.10;98803.00;;;;5014390;28;20052;-65
2023/07/06 08:33:39;;;;;;;2.92;1.73;;;;;22.10;98808.00;;;;4997938;28;20054;-65
2023/07/06 08:36:07;;;;;;;5.72;2.22;;;;;22.20;98799.00;;;;5014673;28;20038;-65
2023/07/06 08:38:36;;;;;;;3.45;1.92;;;;;22.30;98806.00;;;;5015417;28;20491;-65
2023/07/06 08:41:10;;;;;;;3.75;2.10;;;;;22.20;98809.00;;;;5030190;28;20526;-64
2023/07/06 08:43:38;;;;;;;4.75;1.75;;;;;22.00;98805.00;;;;5016305;28;20050;-64
2023/07/06 08:46:05;;;;;;;3.03;1.85;;;;;22.00;98809.00;;;;5014714;28;20042;-64
2023/07/06 08:48:34;;;;;;;7.75;2.30;;;;;21.90;98813.00;;;;5014822;28;20057;-64
2023/07/06 08:51:12;;;;;;;2.95;1.65;;;;;22.00;98806.00;;;;5014677;28;20042;-64
2023/07/06 08:53:45;;;;;;;4.05;1.92;;;;;22.30;98805.00;;;;5014502;28;20505;-64
2023/07/06 08:56:14;;;;;;;2.50;1.88;;;;;22.40;98809.00;;;;5014786;28;20483;-64
2023/07/06 08:58:41;;;;;;;2.22;1.95;;;;;22.60;98810.00;;;;5014816;28;20506;-64
2023/07/06 09:01:12;;;;;;;3.15;2.10;;;;;22.80;98806.00;;;;5015576;28;20042;-64
2023/07/06 09:03:46;;;;;;;4.10;2.03;;;;;23.00;98802.00;;;;5014807;28;20049;-64
2023/07/06 09:06:20;;;;;;;3.38;1.80;;;;;23.20;98814.00;;;;5017596;28;20053;-64
2023/07/06 09:08:50;;;;;;;5.97;2.00;;;;;23.30;98806.00;;;;5015556;28;20495;-64
2023/07/06 09:11:17;;;;;;;4.25;2.17;;;;;23.30;98811.00;;;;5024594;28;20081;-64
2023/07/06 09:13:50;;;;;;;3.72;1.85;;;;;23.30;98803.00;;;;5028730;28;20346;-64
2023/07/06 09:16:20;;;;;;;5.60;2.15;;;;;23.40;98814.00;;;;5026213;28;20041;-64
2023/07/06 09:18:47;;;;;;;4.72;2.22;;;;;23.50;98806.00;;;;5021952;28;20100;-64
2023/07/06 09:21:16;;;;;;;3.85;1.80;;;;;23.80;98816.00;;;;5015505;28;20050;-65
2023/07/06 09:23:47;;;;;;;3.58;2.15;;;;;23.80;98813.00;;;;5029933;28;20050;-64
2023/07/06 09:26:21;;;;;;;5.20;2.00;;;;;24.00;98811.00;;;;5014988;28;20048;-64
2023/07/06 09:29:28;;;;;;;1.85;1.65;;;;;24.20;98808.00;;;;5014608;28;20053;-65
2023/07/06 09:32:11;;;;;;;4.45;2.20;;;;;24.30;98804.00;;;;5013372;28;20054;-63
2023/07/06 09:34:44;;;;;;;4.78;2.25;;;;;24.40;98799.00;;;;5015792;28;20052;-64
2023/07/06 09:37:13;;;;;;;3.10;2.03;;;;;24.70;98799.00;;;;5034092;28;20041;-65
2023/07/06 09:39:57;;;;;;;6.93;2.88;;;;;24.90;98798.00;;;;5032086;28;20073;-64
2023/07/06 09:42:24;;;;;;;4.70;2.10;;;;;24.90;98807.00;;;;5018502;28;20517;-65
2023/07/06 09:44:51;;;;;;;3.65;1.80;;;;;25.00;98803.00;;;;5016234;28;20053;-65
2023/07/06 09:47:18;;;;;;;2.70;2.20;;;;;25.20;98793.00;;;;5019079;28;20129;-65
2023/07/06 09:49:52;;;;;;;4.95;2.00;;;;;25.40;98798.00;;;;5032324;28;20419;-64
2023/07/06 09:52:19;;;;;;;4.20;2.22;;;;;25.50;98800.00;;;;5015295;28;20083;-65
2023/07/06 09:55:13;;;;;;;2.92;2.05;;;;;25.60;98792.00;;;;5014472;28;20510;-65
2023/07/06 09:57:40;;;;;;;2.78;1.95;;;;;25.70;98799.00;;;;5016136;28;20052;-65
2023/07/06 10:00:18;;;;;;;3.13;2.08;;;;;25.80;98801.00;;;;5014749;28;20119;-64
2023/07/06 10:03:23;;;;;;;4.40;2.13;;;;;25.80;98795.00;;;;5018304;28;20108;-65
2023/07/06 10:05:55;;;;;;;2.42;1.63;;;;;25.70;98803.00;;;;5034199;28;20046;-65
2023/07/06 10:08:26;;;;;;;;;;;;;25.60;98804.00;;;;5033830;28;20045;-65
2023/07/06 10:11:35;;;;;;;5.13;3.35;;;;;25.60;98804.00;;;;5018787;28;19944;-66
2023/07/06 10:14:11;;;;;;;3.72;2.08;;;;;25.70;98800.00;;;;5015569;28;20407;-65
2023/07/06 10:16:47;;;;;;;2.83;2.15;;;;;25.50;98810.00;;;;5017696;28;20045;-66
2023/07/06 10:19:25;;;;;;;2.47;1.75;;;;;25.20;98815.00;;;;5017599;28;20064;-65
2023/07/06 10:22:07;;;;;;;5.43;2.15;;;;;25.00;98808.00;;;;5033645;28;20069;-66
2023/07/06 10:24:55;;;;;;;3.58;2.22;;;;;24.80;98814.00;;;;5000385;28;20056;-65
2023/07/06 10:27:31;;;;;;;4.40;2.17;;;;;24.70;98814.00;;;;5018196;28;20120;-65
2023/07/06 10:30:03;;;;;;;3.30;1.88;;;;;24.70;98811.00;;;;5017225;28;20120;-65
2023/07/06 10:32:37;;;;;;;6.38;2.20;;;;;24.80;98807.00;;;;5015872;28;20046;-65
2023/07/06 10:35:18;;;;;;;3.60;2.08;;;;;25.10;98806.00;;;;5016275;28;20472;-65
2023/07/06 10:37:46;;;;;;;3.28;1.90;;;;;25.10;98807.00;;;;5015286;28;20491;-66
2023/07/06 10:40:23;;;;;;;3.75;1.60;;;;;25.10;98811.00;;;;5014885;28;20466;-65
2023/07/06 10:43:14;;;;;;;2.70;1.95;;;;;25.10;98813.00;;;;5013032;28;20050;-66
2023/07/06 10:45:45;;;;;;;5.45;2.30;;;;;25.00;98814.00;;;;5006641;28;20053;-65
2023/07/06 10:48:24;;;;;;;8.77;2.30;;;;;25.00;98810.00;;;;5014002;28;20411;-65
2023/07/06 10:51:04;;;;;;;4.10;2.00;;;;;24.90;98809.00;;;;5012732;28;20133;-65
2023/07/06 10:53:35;;;;;;;1.73;1.63;;;;;24.90;98808.00;;;;5012972;28;20061;-65
2023/07/06 10:56:02;;;;;;;4.72;2.10;;;;;25.10;98804.00;;;;5011986;28;20411;-65
2023/07/06 10:58:36;;;;;;;6.50;2.00;;;;;25.20;98814.00;;;;5015568;28;20038;-66
2023/07/06 11:01:09;;;;;;;4.00;2.03;;;;;25.30;98817.00;;;;5016496;28;20049;-65
2023/07/06 11:03:38;;;;;;;;;;;;;25.10;98804.00;;;;5032630;28;20050;-65
2023/07/06 11:06:10;;;;;;;5.18;2.03;;;;;25.00;98817.00;;;;5015416;28;19976;-65
2023/07/06 11:09:05;;;;;;;3.03;2.22;;;;;25.10;98810.00;;;;5033974;28;20125;-65
2023/07/06 11:11:42;;;;;;;2.63;1.88;;;;;25.30;98814.00;;;;5036117;28;20073;-65
2023/07/06 11:14:33;;;;;;;4.47;2.40;;;;;25.40;98804.00;;;;5021239;28;20050;-65
2023/07/06 11:17:03;;;;;;;4.30;2.15;;;;;25.50;98802.00;;;;5011795;28;20470;-65
2023/07/06 11:19:40;;;;;;;2.17;1.98;;;;;25.80;98815.00;;;;5001866;28;20050;-65
2023/07/06 11:22:17;;;;;;;2.80;1.73;;;;;25.90;98812.00;;;;5019040;28;20184;-65
2023/07/06 11:24:48;;;;;;;4.10;2.08;;;;;25.90;98802.00;;;;5001814;28;20518;-65
2023/07/06 11:27:36;;;;;;;4.65;2.10;;;;;25.90;98808.00;;;;5020996;28;20054;-66
2023/07/06 11:30:15;;;;;;;3.13;1.88;;;;;26.00;98812.00;;;;5019616;28;20074;-65
2023/07/06 11:32:56;;;;;;;2.45;1.83;;;;;26.20;98814.00;;;;5018640;28;20683;-66
2023/07/06 11:35:30;;;;;;;2.42;2.03;;;;;26.30;98808.00;;;;5017738;28;20038;-66
2023/07/06 11:38:04;;;;;;;2.40;1.90;;;;;26.50;98812.00;;;;5017876;28;20046;-66
2023/07/06 11:40:34;;;;;;;4.15;1.90;;;;;26.40;98817.00;;;;5016464;28;20064;-65
2023/07/06 11:43:09;;;;;;;4.75;2.00;;;;;26.20;98806.00;;;;5016195;28;20057;-65
2023/07/06 11:45:58;;;;;;;4.60;2.17;;;;;26.20;98808.00;;;;5015502;28;20046;-66
2023/07/06 11:48:39;;;;;;;3.55;2.10;;;;;26.30;98806.00;;;;5022486;28;20100;-65
2023/07/06 11:51:05;;;;;;;5.30;2.10;;;;;26.30;98796.00;;;;5016058;28;20499;-65
2023/07/06 11:53:44;;;;;;;3.58;2.10;;;;;26.20;98812.00;;;;5014722;28;20046;-67
2023/07/06 11:56:32;;;;;;;3.65;2.22;;;;;26.00;98810.00;;;;5015005;28;20042;-65
2023/07/06 11:59:04;;;;;;;6.10;3.17;;;;;26.00;98801.00;;;;5015999;28;20473;-65
2023/07/06 12:04:12;;;;;;;2.80;1.83;;;;;26.50;98793.00;;;;5016014;28;20050;-65
2023/07/06 12:06:39;;;;;;;6.95;5.00;;;;;26.60;98788.00;;;;5015854;28;20398;-64
2023/07/06 12:09:06;;;;;;;3.83;2.58;;;;;26.70;98795.00;;;;5013173;28;20042;-65
2023/07/06 12:11:35;;;;;;;3.00;1.95;;;;;26.80;98787.00;;;;5015371;28;20054;-65
2023/07/06 12:14:03;;;;;;;2.35;2.00;;;;;26.90;98800.00;;;;5015130;28;20049;-65
2023/07/06 12:16:50;;;;;;;4.10;2.13;;;;;27.00;98787.00;;;;5030590;28;20042;-64
2023/07/06 12:19:17;;;;;;;3.28;2.00;;;;;27.10;98795.00;;;;5014953;28;20057;-65
2023/07/06 12:21:55;;;;;;;2.17;1.85;;;;;27.30;98784.00;;;;5015235;28;20050;-64
2023/07/06 12:24:24;;;;;;;4.82;2.47;;;;;27.40;98779.00;;;;5015039;28;20074;-64
2023/07/06 12:26:55;;;;;;;2.42;1.88;;;;;27.30;98786.00;;;;5013940;28;20400;-66
2023/07/06 12:29:26;;;;;;;3.83;2.22;;;;;27.50;98783.00;;;;5020139;28;20070;-65
2023/07/06 12:32:07;;;;;;;4.53;1.80;;;;;27.80;98773.00;;;;5020728;28;20049;-64
2023/07/06 12:34:37;;;;;;;3.70;1.80;;;;;27.90;98776.00;;;;5015309;28;20133;-64
2023/07/06 12:37:04;;;;;;;3.95;1.90;;;;;27.80;98772.00;;;;5015749;28;20717;-65
2023/07/06 12:39:40;;;;;;;3.35;2.00;;;;;27.70;98771.00;;;;5014858;28;20491;-69
2023/07/06 12:42:11;;;;;;;6.15;2.20;;;;;27.60;98780.00;;;;5015032;28;20506;-64